Time;durP1;ratioP1;P1;durP2;ratioP2;P2;SDS_P1;SDS_P2;PMS_P1;PMS_P2;Temp;Humidity;BMP_temperature;BMP_pressure;BME280_temperature;BME280_humidity;BME280_pressure;Samples;Min_cycle;Max_cycle;Signal;HPM_P1;HPM_P2
2022/01/28 00:02:16;;;;;;;25.50;6.30;;;6.20;99.90;;;;;;5061454;28;20216;-76
2022/01/28 00:04:43;;;;;;;20.67;5.60;;;6.20;99.90;;;;;;5057510;28;20211;-77
2022/01/28 00:07:10;;;;;;;26.40;4.68;;;6.20;99.90;;;;;;5055509;28;20254;-75
2022/01/28 00:09:37;;;;;;;13.95;4.80;;;6.20;99.90;;;;;;5061297;28;20207;-75
2022/01/28 00:12:07;;;;;;;27.65;5.75;;;6.20;99.90;;;;;;5055563;28;20645;-77
2022/01/28 00:14:42;;;;;;;19.30;5.18;;;6.20;99.90;;;;;;5053706;28;20562;-76
2022/01/28 00:17:43;;;;;;;16.95;4.90;;;6.10;99.90;;;;;;5059536;28;20223;-76
2022/01/28 00:20:51;;;;;;;22.58;4.95;;;6.00;99.90;;;;;;5055118;28;20207;-76
2022/01/28 00:37:05;;;;;;;14.05;3.75;;;5.70;99.90;;;;;;5061451;28;20219;-75
2022/01/28 00:39:32;;;;;;;22.63;5.45;;;5.70;99.90;;;;;;5058123;28;20212;-77
2022/01/28 00:41:59;;;;;;;22.67;5.95;;;5.70;99.90;;;;;;5057118;28;20258;-75
2022/01/28 00:44:27;;;;;;;16.48;4.10;;;5.70;99.90;;;;;;5061768;28;20270;-75
2022/01/28 00:46:54;;;;;;;22.92;5.00;;;5.70;99.90;;;;;;5058408;28;20537;-76
2022/01/28 00:49:22;;;;;;;22.10;5.15;;;5.80;99.90;;;;;;5053549;28;20617;-75
2022/01/28 00:51:49;;;;;;;20.52;4.53;;;5.90;99.90;;;;;;5059119;28;20225;-76
2022/01/28 00:54:17;;;;;;;24.42;6.13;;;5.90;99.90;;;;;;5054548;28;20229;-73
2022/01/28 00:56:44;;;;;;;20.15;5.00;;;6.00;99.90;;;;;;5061073;28;20200;-76
2022/01/28 00:59:11;;;;;;;18.65;4.45;;;5.90;99.90;;;;;;5062729;28;20706;-76
2022/01/28 01:01:40;;;;;;;19.67;6.50;;;5.90;99.90;;;;;;5055163;28;20225;-77
2022/01/28 01:04:07;;;;;;;18.25;4.97;;;5.90;99.90;;;;;;5066276;28;20324;-75
2022/01/28 01:06:37;;;;;;;26.10;6.20;;;5.90;99.90;;;;;;5070856;28;20258;-78
2022/01/28 01:09:04;;;;;;;25.88;5.95;;;5.90;99.90;;;;;;5053631;28;20247;-76
2022/01/28 01:11:31;;;;;;;23.02;6.35;;;6.00;99.90;;;;;;5053439;28;20282;-75
2022/01/28 01:13:59;;;;;;;21.30;7.00;;;6.00;99.90;;;;;;5061021;28;20197;-74
2022/01/28 01:16:30;;;;;;;21.65;5.30;;;6.10;99.90;;;;;;5055793;28;20367;-77
2022/01/28 01:19:15;;;;;;;21.80;5.50;;;6.10;99.90;;;;;;5058460;28;20212;-75
2022/01/28 01:21:43;;;;;;;17.77;6.15;;;6.20;99.90;;;;;;5057544;28;20228;-76
2022/01/28 01:24:20;;;;;;;22.75;3.63;;;6.20;99.90;;;;;;5059960;28;20637;-76
2022/01/28 01:26:47;;;;;;;16.95;4.25;;;6.20;99.90;;;;;;5052916;28;20201;-76
2022/01/28 01:29:17;;;;;;;25.95;6.63;;;6.20;99.90;;;;;;5055005;28;20610;-76
2022/01/28 01:31:44;;;;;;;22.38;5.05;;;6.20;99.90;;;;;;5053989;28;20298;-75
2022/01/28 01:34:16;;;;;;;22.45;5.72;;;6.20;99.90;;;;;;5053258;28;20192;-75
2022/01/28 01:36:44;;;;;;;25.35;7.20;;;6.20;99.90;;;;;;5056001;28;20609;-76
2022/01/28 01:39:15;;;;;;;17.15;4.57;;;6.20;99.90;;;;;;5054746;28;20196;-74
2022/01/28 01:41:46;;;;;;;16.00;3.80;;;6.20;99.90;;;;;;5070990;28;20963;-74
2022/01/28 01:44:22;;;;;;;15.45;4.15;;;6.20;99.90;;;;;;5064219;28;20211;-74
2022/01/28 01:52:41;;;;;;;13.20;4.78;;;6.00;99.90;;;;;;5056444;28;20236;-76
2022/01/28 01:55:09;;;;;;;17.40;3.95;;;6.10;99.90;;;;;;5059486;28;20212;-75
2022/01/28 01:57:36;;;;;;;24.65;4.40;;;6.00;99.90;;;;;;5054057;28;20204;-75
2022/01/28 02:00:04;;;;;;;21.27;5.57;;;6.10;99.90;;;;;;5060803;28;20255;-75
2022/01/28 02:02:31;;;;;;;16.60;5.38;;;6.10;99.90;;;;;;5060197;28;20234;-76
2022/01/28 02:05:00;;;;;;;20.45;6.00;;;6.20;99.90;;;;;;5057077;28;20259;-74
2022/01/28 02:07:28;;;;;;;14.13;5.22;;;6.20;99.90;;;;;;5060240;28;20206;-75
2022/01/28 02:09:55;;;;;;;21.35;4.82;;;6.30;99.90;;;;;;5056498;28;20237;-74
2022/01/28 02:12:22;;;;;;;17.42;4.47;;;6.40;99.90;;;;;;5055634;28;20700;-76
2022/01/28 02:14:49;;;;;;;19.65;6.82;;;6.40;99.90;;;;;;5059391;28;20208;-73
2022/01/28 02:17:16;;;;;;;19.02;5.10;;;6.50;99.90;;;;;;5059133;28;20621;-75
2022/01/28 02:19:43;;;;;;;18.48;6.65;;;6.50;99.90;;;;;;5063622;28;20202;-74
2022/01/28 02:22:12;;;;;;;12.52;4.47;;;6.50;99.90;;;;;;5066239;28;20222;-75
2022/01/28 02:24:43;;;;;;;23.02;5.22;;;6.40;99.90;;;;;;5052323;28;20232;-76
2022/01/28 02:27:12;;;;;;;15.48;4.95;;;6.40;99.90;;;;;;5059271;28;20594;-74
2022/01/28 02:29:41;;;;;;;19.05;5.13;;;6.30;99.90;;;;;;5060697;28;20201;-75
2022/01/28 02:32:08;;;;;;;17.10;4.03;;;6.40;99.90;;;;;;5059434;28;20222;-75
2022/01/28 02:34:38;;;;;;;15.55;5.55;;;6.40;99.90;;;;;;5057503;28;20327;-75
2022/01/28 02:37:05;;;;;;;22.83;3.83;;;6.40;99.90;;;;;;5053403;28;20205;-75
2022/01/28 02:39:55;;;;;;;18.75;4.68;;;6.40;99.90;;;;;;5055802;28;20616;-75
2022/01/28 02:42:37;;;;;;;21.38;4.88;;;6.40;99.90;;;;;;5061067;28;20230;-76
2022/01/28 02:45:08;;;;;;;20.20;3.90;;;6.50;99.90;;;;;;5056160;28;20215;-75
2022/01/28 02:47:38;;;;;;;14.02;4.32;;;6.60;99.90;;;;;;5055955;28;20212;-76
2022/01/28 02:50:08;;;;;;;23.83;4.95;;;6.60;99.90;;;;;;5055610;28;20202;-75
2022/01/28 02:52:39;;;;;;;12.13;4.13;;;6.60;99.90;;;;;;5055490;28;20320;-74
2022/01/28 02:55:09;;;;;;;20.33;5.10;;;6.50;99.90;;;;;;5069572;28;20207;-73
2022/01/28 02:58:03;;;;;;;22.80;4.43;;;6.50;99.90;;;;;;5064165;28;20232;-73
2022/01/28 03:00:30;;;;;;;15.73;4.78;;;6.50;99.90;;;;;;5069705;28;20201;-77
2022/01/28 03:02:57;;;;;;;16.73;4.28;;;6.60;99.90;;;;;;5062269;28;20223;-76
2022/01/28 03:05:32;;;;;;;19.00;5.15;;;6.60;99.90;;;;;;5061095;28;20206;-77
2022/01/28 03:08:01;;;;;;;20.58;4.60;;;6.60;99.90;;;;;;5054494;28;20193;-76
2022/01/28 03:10:40;;;;;;;15.20;4.97;;;6.60;99.90;;;;;;5060004;28;20767;-77
2022/01/28 03:13:31;;;;;;;17.52;4.70;;;6.60;99.90;;;;;;5055140;28;20224;-75
2022/01/28 03:16:08;;;;;;;23.60;4.63;;;6.50;99.90;;;;;;5048389;28;20610;-78
2022/01/28 03:23:13;;;;;;;15.57;4.70;;;6.40;99.90;;;;;;5022821;28;20209;-84
2022/01/28 03:26:19;;;;;;;19.90;5.85;;;6.30;99.90;;;;;;5011495;28;20194;-86
2022/01/28 04:13:10;;;;;;;24.83;6.82;;;6.60;99.90;;;;;;4854304;29;20213;-84
2022/01/28 04:15:49;;;;;;;28.35;8.23;;;6.60;99.90;;;;;;4948299;29;20267;-86
2022/01/28 04:18:16;;;;;;;15.38;5.25;;;6.60;99.90;;;;;;5028151;28;20244;-87
2022/01/28 04:20:46;;;;;;;22.20;4.53;;;6.60;99.90;;;;;;5058705;28;20214;-85
2022/01/28 04:23:13;;;;;;;15.77;4.03;;;6.60;99.90;;;;;;5068812;28;20263;-85
2022/01/28 04:25:41;;;;;;;17.70;4.30;;;6.60;99.90;;;;;;5068183;28;20206;-86
2022/01/28 04:28:09;;;;;;;10.43;3.53;;;6.60;99.90;;;;;;5068738;28;20234;-84
2022/01/28 04:30:40;;;;;;;8.23;3.60;;;6.60;99.90;;;;;;5070715;28;20240;-88
2022/01/28 04:33:09;;;;;;;12.75;5.05;;;6.60;99.90;;;;;;5071276;28;20201;-85
2022/01/28 04:35:36;;;;;;;18.55;4.43;;;6.60;99.90;;;;;;5068726;28;20210;-85
2022/01/28 04:38:16;;;;;;;9.60;4.05;;;6.60;99.90;;;;;;5072421;28;20267;-87
2022/01/28 04:40:55;;;;;;;11.65;2.63;;;6.60;99.90;;;;;;5076612;28;20202;-88
2022/01/28 04:43:29;;;;;;;18.48;3.83;;;6.40;99.90;;;;;;5077489;28;20210;-88
2022/01/28 04:46:05;;;;;;;6.00;2.60;;;6.60;99.90;;;;;;5077609;28;20250;-85
2022/01/28 04:48:38;;;;;;;13.05;3.28;;;6.50;99.90;;;;;;5077985;28;20173;-85
2022/01/28 04:51:15;;;;;;;14.20;2.30;;;6.50;99.90;;;;;;5073844;28;20201;-85
2022/01/28 04:53:54;;;;;;;18.38;3.83;;;6.50;99.90;;;;;;5071888;28;20642;-84
2022/01/28 04:56:40;;;;;;;10.93;4.15;;;6.50;99.90;;;;;;5086159;28;20198;-84
2022/01/28 04:59:25;;;;;;;13.55;3.85;;;6.50;99.90;;;;;;5097809;28;20197;-84
2022/01/28 05:04:54;;;;;;;9.05;3.60;;;6.40;99.90;;;;;;5066115;28;20212;-86
2022/01/28 05:13:24;;;;;;;14.35;4.70;;;6.10;99.90;;;;;;5063823;28;20278;-85
2022/01/28 05:26:55;;;;;;;16.70;4.90;;;6.00;99.90;;;;;;5057155;28;20622;-87
2022/01/28 05:29:28;;;;;;;14.60;4.78;;;5.90;99.90;;;;;;5062320;28;20201;-86
2022/01/28 05:31:56;;;;;;;34.10;6.22;;;6.00;99.90;;;;;;5062150;28;20198;-85
2022/01/28 05:34:27;;;;;;;20.10;5.45;;;6.00;99.90;;;;;;5061557;28;20667;-86
2022/01/28 05:36:55;;;;;;;19.15;5.20;;;6.00;99.90;;;;;;5055904;28;20251;-84
2022/01/28 05:39:22;;;;;;;19.52;5.35;;;5.90;99.90;;;;;;5054132;28;20231;-85
2022/01/28 05:41:49;;;;;;;14.48;4.97;;;5.90;99.90;;;;;;5057165;28;20220;-87
2022/01/28 05:44:18;;;;;;;16.88;5.68;;;5.90;99.90;;;;;;5066584;28;20204;-86
2022/01/28 05:46:45;;;;;;;17.80;5.70;;;5.90;99.90;;;;;;5064006;28;20263;-84
2022/01/28 05:49:14;;;;;;;16.95;6.32;;;5.90;99.90;;;;;;5065012;28;20209;-85
2022/01/28 05:51:41;;;;;;;24.83;6.35;;;5.90;99.90;;;;;;5063186;28;20264;-84
2022/01/28 05:54:08;;;;;;;12.93;5.05;;;6.00;99.90;;;;;;5065451;28;20311;-87
2022/01/28 05:56:38;;;;;;;22.63;5.43;;;6.00;99.90;;;;;;5068551;28;20225;-88
2022/01/28 05:59:08;;;;;;;22.10;5.25;;;6.00;99.90;;;;;;5072054;28;20194;-84
2022/01/28 06:01:35;;;;;;;27.75;4.95;;;6.00;99.90;;;;;;5067673;28;20285;-86
2022/01/28 06:04:04;;;;;;;22.75;6.57;;;6.00;99.90;;;;;;5076565;28;20176;-86
2022/01/28 06:06:38;;;;;;;17.58;5.22;;;6.10;99.90;;;;;;5077090;28;20215;-85
2022/01/28 06:09:05;;;;;;;25.00;6.30;;;6.10;99.90;;;;;;5077131;28;20217;-87
2022/01/28 06:14:50;;;;;;;28.35;5.72;;;5.90;99.90;;;;;;5076344;28;20246;-86
2022/01/28 06:17:17;;;;;;;24.45;5.63;;;6.10;99.90;;;;;;5064784;28;20217;-86
2022/01/28 06:19:45;;;;;;;19.55;4.70;;;6.10;99.90;;;;;;5061521;28;20182;-89
2022/01/28 06:22:13;;;;;;;23.50;6.70;;;6.10;99.90;;;;;;5068340;28;20201;-85
2022/01/28 06:24:40;;;;;;;25.42;4.90;;;6.20;99.90;;;;;;5072728;28;20201;-85
2022/01/28 06:27:08;;;;;;;21.45;6.07;;;6.20;99.90;;;;;;5074749;28;20234;-87
2022/01/28 06:29:35;;;;;;;19.67;5.50;;;6.30;99.90;;;;;;5070016;28;20733;-85
2022/01/28 06:32:02;;;;;;;22.20;6.65;;;6.30;99.90;;;;;;5069822;28;20225;-86
2022/01/28 06:34:29;;;;;;;21.90;5.68;;;6.40;99.90;;;;;;5074395;28;20229;-86
2022/01/28 06:36:57;;;;;;;18.80;6.25;;;6.40;99.90;;;;;;5071828;28;20246;-85
2022/01/28 06:39:25;;;;;;;23.02;5.22;;;6.40;99.90;;;;;;5073875;28;20580;-87
2022/01/28 06:41:52;;;;;;;24.98;5.25;;;6.50;99.90;;;;;;5064152;28;20206;-87
2022/01/28 06:44:19;;;;;;;16.25;4.95;;;6.50;99.90;;;;;;5071853;28;20207;-86
2022/01/28 06:46:46;;;;;;;14.85;5.30;;;6.70;99.90;;;;;;5069590;28;20222;-85
2022/01/28 06:49:13;;;;;;;19.60;4.78;;;6.60;99.90;;;;;;5072175;28;20233;-87
2022/01/28 06:51:42;;;;;;;27.13;4.72;;;6.60;99.90;;;;;;5075626;28;20268;-87
2022/01/28 06:54:09;;;;;;;19.45;4.45;;;6.60;99.90;;;;;;5069445;28;20205;-86
2022/01/28 06:56:37;;;;;;;21.17;6.60;;;6.60;99.90;;;;;;5071130;28;20218;-85
2022/01/28 06:59:04;;;;;;;18.00;6.32;;;6.70;99.90;;;;;;5069346;28;20212;-85
2022/01/28 07:04:14;;;;;;;18.10;7.00;;;6.70;99.90;;;;;;5057474;28;20201;-85
2022/01/28 07:06:41;;;;;;;31.13;5.22;;;6.70;99.90;;;;;;5067687;28;20233;-87
2022/01/28 07:09:09;;;;;;;31.83;6.72;;;6.70;99.90;;;;;;5066934;28;20559;-85
2022/01/28 07:11:39;;;;;;;22.00;6.30;;;6.70;99.90;;;;;;5066451;28;20211;-85
2022/01/28 07:14:06;;;;;;;14.52;4.88;;;6.70;99.90;;;;;;5065568;28;20274;-87
2022/01/28 07:16:33;;;;;;;22.42;4.75;;;6.70;99.90;;;;;;5066731;28;20250;-85
2022/01/28 07:19:01;;;;;;;23.27;5.57;;;6.70;99.90;;;;;;5074210;28;20214;-85
2022/01/28 07:21:28;;;;;;;30.38;6.50;;;6.80;99.90;;;;;;5067377;28;20206;-84
2022/01/28 07:23:55;;;;;;;24.50;5.95;;;6.80;99.90;;;;;;5068923;28;20213;-86
2022/01/28 07:26:23;;;;;;;22.10;5.60;;;6.80;99.90;;;;;;5057473;28;20203;-85
2022/01/28 07:28:53;;;;;;;17.08;5.07;;;6.80;99.90;;;;;;5066533;28;20211;-86
2022/01/28 07:31:21;;;;;;;23.02;6.03;;;6.90;99.90;;;;;;5065130;28;20217;-86
2022/01/28 07:33:48;;;;;;;16.02;5.00;;;6.70;99.90;;;;;;5077397;28;20206;-89
2022/01/28 07:36:16;;;;;;;20.95;4.43;;;6.90;99.90;;;;;;5061958;28;20200;-89
2022/01/28 07:38:43;;;;;;;16.45;4.72;;;6.90;99.90;;;;;;5065839;28;20201;-86
2022/01/28 07:41:10;;;;;;;27.13;4.82;;;6.90;99.90;;;;;;5070956;28;20301;-86
2022/01/28 07:43:39;;;;;;;20.15;4.53;;;7.00;99.90;;;;;;5064062;28;20215;-87
2022/01/28 07:46:07;;;;;;;20.75;5.80;;;7.00;99.90;;;;;;5058813;28;20266;-86
2022/01/28 07:48:34;;;;;;;26.23;7.53;;;7.10;99.90;;;;;;5061327;28;20225;-87
2022/01/28 07:51:03;;;;;;;18.95;5.07;;;7.00;99.90;;;;;;5070126;28;20232;-89
2022/01/28 07:53:30;;;;;;;21.55;5.85;;;7.00;99.90;;;;;;5058934;28;20198;-84
2022/01/28 07:55:57;;;;;;;24.25;5.63;;;7.10;99.90;;;;;;5065466;28;20222;-84
2022/01/28 07:58:24;;;;;;;19.75;4.65;;;7.00;99.90;;;;;;5070580;28;20233;-86
2022/01/28 08:00:51;;;;;;;10.98;4.38;;;7.00;99.90;;;;;;5060532;28;20298;-86
2022/01/28 08:03:19;;;;;;;16.13;6.53;;;7.10;99.90;;;;;;5066828;28;20231;-85
2022/01/28 08:05:46;;;;;;;20.08;5.43;;;7.20;99.90;;;;;;5066748;28;20206;-85
2022/01/28 08:08:18;;;;;;;13.82;4.25;;;7.10;99.90;;;;;;5064587;28;20230;-84
2022/01/28 08:10:46;;;;;;;13.93;4.82;;;6.90;99.90;;;;;;5067364;28;20190;-87
2022/01/28 08:13:13;;;;;;;24.23;5.88;;;6.80;99.90;;;;;;5068928;28;20203;-85
2022/01/28 08:15:40;;;;;;;26.55;5.45;;;6.80;99.90;;;;;;5071155;28;20257;-86
2022/01/28 08:18:08;;;;;;;15.07;4.32;;;6.80;99.90;;;;;;5062884;28;20289;-86
2022/01/28 08:20:37;;;;;;;29.08;4.20;;;7.00;99.90;;;;;;5070610;28;20228;-85
2022/01/28 08:23:05;;;;;;;13.43;3.85;;;7.30;99.90;;;;;;5058458;28;20203;-86
2022/01/28 08:25:35;;;;;;;24.27;5.68;;;7.10;99.90;;;;;;5064313;28;20664;-85
2022/01/28 08:28:07;;;;;;;38.70;7.18;;;7.20;99.90;;;;;;5059723;28;20219;-86
2022/01/28 08:30:38;;;;;;;20.30;5.30;;;7.10;99.90;;;;;;5069786;28;20224;-84
2022/01/28 08:33:06;;;;;;;14.55;5.90;;;7.20;99.90;;;;;;5068575;28;20183;-84
2022/01/28 08:35:37;;;;;;;23.98;5.78;;;7.20;99.90;;;;;;5063691;28;20221;-83
2022/01/28 08:38:13;;;;;;;24.00;5.78;;;7.20;99.90;;;;;;5070711;28;20211;-85
2022/01/28 08:40:40;;;;;;;18.10;5.22;;;7.50;99.90;;;;;;5073699;28;20203;-82
2022/01/28 08:43:07;;;;;;;12.75;4.40;;;7.60;99.90;;;;;;5072498;28;20187;-86
2022/01/28 08:45:34;;;;;;;15.38;4.70;;;7.70;99.90;;;;;;5076142;28;20229;-83
2022/01/28 08:48:01;;;;;;;13.05;5.05;;;7.80;99.90;;;;;;5073709;28;20648;-88
2022/01/28 08:50:29;;;;;;;13.45;3.58;;;8.00;99.90;;;;;;5069844;28;20200;-86
2022/01/28 08:52:56;;;;;;;23.17;5.25;;;8.00;99.90;;;;;;5066500;28;20245;-85
2022/01/28 08:55:25;;;;;;;13.82;5.03;;;8.20;99.90;;;;;;5077324;28;20203;-82
2022/01/28 08:57:53;;;;;;;26.73;6.38;;;8.30;99.90;;;;;;5077383;28;20714;-84
2022/01/28 09:00:22;;;;;;;17.25;4.38;;;8.30;99.90;;;;;;5060013;28;20192;-86
2022/01/28 09:02:49;;;;;;;12.68;3.65;;;8.30;99.90;;;;;;5066910;28;20343;-84
2022/01/28 09:05:16;;;;;;;21.02;5.10;;;8.60;99.90;;;;;;5064173;28;20204;-84
2022/01/28 09:07:43;;;;;;;26.42;6.60;;;8.70;99.90;;;;;;5068037;28;20247;-87
2022/01/28 09:10:17;;;;;;;22.33;5.53;;;8.60;99.90;;;;;;5074028;28;20215;-87
2022/01/28 09:13:10;;;;;;;25.95;5.90;;;8.60;99.90;;;;;;5067845;28;20217;-87
2022/01/28 09:15:39;;;;;;;16.63;4.45;;;8.70;99.90;;;;;;5063979;28;20226;-87
2022/01/28 09:18:09;;;;;;;15.05;5.40;;;8.80;99.90;;;;;;5071940;28;20235;-89
2022/01/28 09:20:38;;;;;;;17.50;4.68;;;8.70;99.90;;;;;;5071728;28;20195;-88
2022/01/28 09:23:06;;;;;;;15.57;4.68;;;8.80;99.90;;;;;;5069759;28;20262;-88
2022/01/28 09:25:34;;;;;;;17.13;4.93;;;9.40;99.90;;;;;;5059373;28;20222;-88
2022/01/28 09:28:05;;;;;;;15.98;4.25;;;10.30;99.90;;;;;;5069462;28;20290;-88
2022/01/28 09:30:34;;;;;;;19.77;4.22;;;11.10;98.40;;;;;;5068624;28;20203;-88
2022/01/28 09:33:04;;;;;;;15.88;5.25;;;11.70;96.20;;;;;;5069313;28;20247;-88
2022/01/28 09:35:37;;;;;;;12.55;4.35;;;12.00;95.10;;;;;;5071860;28;20226;-88
2022/01/28 09:40:46;;;;;;;28.63;6.60;;;12.40;92.60;;;;;;5071118;28;20199;-88
2022/01/28 09:43:16;;;;;;;12.50;3.80;;;12.80;91.90;;;;;;5069331;28;20199;-88
2022/01/28 09:45:49;;;;;;;18.52;4.40;;;12.30;91.00;;;;;;5070857;28;20198;-88
2022/01/28 09:48:22;;;;;;;14.27;3.95;;;11.90;91.80;;;;;;5058252;28;20248;-89
2022/01/28 09:50:51;;;;;;;14.07;4.07;;;11.70;92.30;;;;;;5066448;28;20209;-87
2022/01/28 09:53:21;;;;;;;23.45;4.78;;;12.30;92.30;;;;;;5073507;28;20578;-86
2022/01/28 10:01:50;;;;;;;16.92;4.75;;;13.80;87.20;;;;;;5072471;28;20210;-88
2022/01/28 10:04:19;;;;;;;23.05;4.53;;;13.90;85.60;;;;;;5073220;28;20212;-87
2022/01/28 10:09:33;;;;;;;9.90;3.20;;;14.70;84.90;;;;;;5076086;28;20207;-89
2022/01/28 10:12:17;;;;;;;12.25;3.53;;;14.80;81.90;;;;;;5072067;28;20449;-89
2022/01/28 10:15:16;;;;;;;19.17;3.95;;;15.20;80.50;;;;;;5075635;28;20190;-88
2022/01/28 10:17:56;;;;;;;16.90;4.90;;;15.30;80.60;;;;;;5093246;22;20233;-73
2022/01/28 10:20:24;;;;;;;15.43;3.88;;;15.40;80.10;;;;;;5086208;28;20211;-74
2022/01/28 10:22:53;;;;;;;12.85;5.10;;;15.30;79.40;;;;;;5093352;28;20216;-73
2022/01/28 10:25:25;;;;;;;13.73;3.80;;;14.90;77.50;;;;;;5103039;28;20205;-74
2022/01/28 10:28:00;;;;;;;18.27;4.50;;;14.30;80.20;;;;;;5098852;28;20692;-78
2022/01/28 10:30:27;;;;;;;18.13;4.70;;;13.90;81.70;;;;;;5089260;28;20203;-76
2022/01/28 10:33:14;;;;;;;19.85;4.53;;;14.00;82.90;;;;;;5094822;28;20505;-75
2022/01/28 10:35:50;;;;;;;18.08;5.78;;;13.70;82.90;;;;;;5091196;28;20537;-74
2022/01/28 10:38:32;;;;;;;11.80;3.72;;;13.20;85.00;;;;;;5089348;28;20226;-76
2022/01/28 10:41:14;;;;;;;12.90;3.78;;;13.10;85.60;;;;;;5096682;28;20186;-76
2022/01/28 10:43:46;;;;;;;21.92;4.68;;;12.90;85.60;;;;;;5092946;28;20200;-76
2022/01/28 10:46:13;;;;;;;15.23;4.40;;;12.90;87.10;;;;;;5087648;28;20203;-77
2022/01/28 10:48:52;;;;;;;17.98;5.28;;;12.90;86.80;;;;;;5097807;28;20242;-76
2022/01/28 10:51:20;;;;;;;12.52;3.13;;;13.00;86.80;;;;;;5096028;28;20327;-76
2022/01/28 10:54:04;;;;;;;14.32;4.45;;;12.80;86.70;;;;;;5084152;28;20219;-76
2022/01/28 10:56:31;;;;;;;14.93;5.90;;;12.50;88.20;;;;;;5091815;28;20204;-76
2022/01/28 10:58:58;;;;;;;20.48;4.97;;;12.00;90.40;;;;;;5083434;28;20200;-78
2022/01/28 11:01:26;;;;;;;12.43;5.38;;;11.90;90.50;;;;;;5083817;28;20222;-73
2022/01/28 11:03:55;;;;;;;20.20;4.82;;;11.30;91.50;;;;;;5107345;28;20244;-73
2022/01/28 11:06:24;;;;;;;11.73;3.80;;;11.60;92.20;;;;;;5097761;28;20613;-75
2022/01/28 11:08:51;;;;;;;12.50;4.00;;;11.60;92.10;;;;;;5090593;28;20204;-73
2022/01/28 11:11:18;;;;;;;16.05;4.50;;;11.70;91.90;;;;;;5097612;28;20219;-72
2022/01/28 11:13:47;;;;;;;18.00;5.05;;;11.60;92.00;;;;;;5084894;28;20291;-76
2022/01/28 11:16:14;;;;;;;25.30;5.57;;;11.40;92.20;;;;;;5092832;28;20268;-74
2022/01/28 11:18:41;;;;;;;14.38;4.18;;;10.90;92.50;;;;;;5098204;28;20263;-73
2022/01/28 11:21:14;;;;;;;14.18;5.65;;;10.90;92.70;;;;;;5098212;28;20222;-75
2022/01/28 11:23:51;;;;;;;38.58;5.50;;;11.00;92.90;;;;;;5098704;28;20242;-74
2022/01/28 11:26:23;;;;;;;14.85;5.30;;;10.90;92.10;;;;;;5086145;28;20201;-76
2022/01/28 11:28:55;;;;;;;15.60;4.60;;;10.60;93.30;;;;;;5090028;28;20231;-75
2022/01/28 11:31:42;;;;;;;16.55;5.30;;;10.60;93.00;;;;;;5098419;28;20224;-76
2022/01/28 11:34:18;;;;;;;18.63;4.15;;;10.40;93.00;;;;;;5093122;28;20198;-72
2022/01/28 11:36:47;;;;;;;17.05;4.30;;;10.20;92.40;;;;;;5098258;28;20544;-78
2022/01/28 11:39:33;;;;;;;15.07;3.90;;;10.00;92.70;;;;;;5098010;28;20195;-73
2022/01/28 11:42:06;;;;;;;15.15;3.75;;;9.80;93.90;;;;;;5104512;28;20292;-73
2022/01/28 11:44:44;;;;;;;17.60;4.25;;;9.60;95.20;;;;;;5094151;28;20265;-77
2022/01/28 11:47:20;;;;;;;16.58;3.50;;;9.70;96.20;;;;;;5091279;28;20198;-74
2022/01/28 11:49:58;;;;;;;16.60;4.13;;;9.60;96.30;;;;;;5085198;28;20248;-76
2022/01/28 11:52:30;;;;;;;17.17;4.70;;;9.50;96.70;;;;;;5088620;28;20226;-77
2022/01/28 11:55:33;;;;;;;18.30;3.97;;;9.40;97.50;;;;;;5090264;28;20218;-73
2022/01/28 11:58:04;;;;;;;17.40;4.75;;;9.30;97.40;;;;;;5090080;28;20198;-78
2022/01/28 12:00:34;;;;;;;15.85;4.80;;;9.40;97.90;;;;;;5088856;28;20582;-75
2022/01/28 12:03:02;;;;;;;12.73;4.60;;;9.40;98.10;;;;;;5097748;28;20225;-77
2022/01/28 12:05:59;;;;;;;12.45;4.55;;;9.30;98.10;;;;;;5096194;28;20216;-77
2022/01/28 12:08:30;;;;;;;19.92;6.30;;;9.30;98.80;;;;;;5090172;28;20191;-75
2022/01/28 12:11:00;;;;;;;18.48;5.40;;;9.20;98.90;;;;;;5078095;28;20234;-76
2022/01/28 12:13:32;;;;;;;34.33;6.00;;;9.10;99.10;;;;;;5094022;28;20203;-74
2022/01/28 12:16:10;;;;;;;20.80;5.72;;;9.00;99.90;;;;;;5085106;28;20630;-76
2022/01/28 12:18:53;;;;;;;26.23;4.72;;;9.00;99.90;;;;;;5089464;28;20211;-73
2022/01/28 12:21:25;;;;;;;17.50;5.35;;;9.00;99.90;;;;;;5087022;28;20292;-76
2022/01/28 12:23:56;;;;;;;14.82;3.95;;;9.10;99.90;;;;;;5084827;28;20216;-74
2022/01/28 12:26:24;;;;;;;19.50;5.28;;;9.20;99.90;;;;;;5082584;28;20207;-75
2022/01/28 12:28:56;;;;;;;14.57;4.13;;;9.20;98.60;;;;;;5084134;28;20198;-76
2022/01/28 12:31:28;;;;;;;15.45;4.70;;;9.20;98.30;;;;;;5088607;28;20246;-77
2022/01/28 12:33:57;;;;;;;13.48;4.30;;;9.30;97.80;;;;;;5093143;28;20278;-75
2022/01/28 12:36:26;;;;;;;21.50;3.75;;;9.50;97.80;;;;;;5089413;28;20650;-75
2022/01/28 12:39:11;;;;;;;18.95;2.85;;;9.50;97.30;;;;;;5089827;28;20541;-77
2022/01/28 12:41:50;;;;;;;13.23;2.55;;;9.50;96.50;;;;;;5089640;28;20249;-72
2022/01/28 12:44:18;;;;;;;10.27;3.00;;;9.40;96.30;;;;;;5089180;28;20207;-74
2022/01/28 12:46:52;;;;;;;24.15;4.43;;;9.40;96.20;;;;;;5096052;28;20593;-74
2022/01/28 12:49:25;;;;;;;11.80;3.35;;;9.30;95.00;;;;;;5082095;28;20261;-79
2022/01/28 12:51:56;;;;;;;22.05;4.10;;;9.20;95.80;;;;;;5090046;28;20215;-77
2022/01/28 12:54:35;;;;;;;17.63;4.03;;;9.30;96.10;;;;;;5093893;28;20264;-73
2022/01/28 12:57:03;;;;;;;18.05;5.10;;;9.30;96.30;;;;;;5098477;28;20236;-75
2022/01/28 12:59:30;;;;;;;17.98;4.90;;;9.30;96.30;;;;;;5087621;28;20578;-79
2022/01/28 13:01:58;;;;;;;13.60;4.10;;;9.20;96.40;;;;;;5098960;28;20252;-74
2022/01/28 13:04:37;;;;;;;9.50;3.10;;;9.20;96.10;;;;;;5091906;28;20237;-76
2022/01/28 13:09:48;;;;;;;14.68;3.53;;;9.20;97.10;;;;;;5046288;28;20191;-77
2022/01/28 13:12:22;;;;;;;13.60;4.55;;;9.30;96.60;;;;;;5094939;28;20298;-75
2022/01/28 13:14:50;;;;;;;17.63;5.25;;;9.20;96.60;;;;;;5096576;28;20568;-74
2022/01/28 13:17:21;;;;;;;19.45;4.57;;;9.20;97.00;;;;;;5095569;28;20271;-78
2022/01/28 13:19:55;;;;;;;14.05;4.30;;;9.10;97.30;;;;;;5096710;28;20206;-75
2022/01/28 13:22:25;;;;;;;17.55;4.88;;;9.20;97.50;;;;;;5093210;28;20633;-74
2022/01/28 13:24:54;;;;;;;16.83;5.38;;;9.20;97.50;;;;;;5089551;28;20235;-79
2022/01/28 13:27:22;;;;;;;12.68;4.28;;;9.20;97.80;;;;;;5087063;28;20570;-75
2022/01/28 13:29:53;;;;;;;22.50;5.20;;;9.30;98.10;;;;;;5086172;28;20183;-73
2022/01/28 13:32:24;;;;;;;23.92;6.57;;;9.30;98.50;;;;;;5090836;28;20575;-73
2022/01/28 13:34:55;;;;;;;25.25;5.00;;;9.30;98.90;;;;;;5092558;28;20681;-75
2022/01/28 13:37:43;;;;;;;17.00;4.60;;;9.20;99.80;;;;;;5096579;28;20213;-72
2022/01/28 13:40:26;;;;;;;19.73;4.90;;;9.30;99.90;;;;;;5091430;28;20201;-73
2022/01/28 13:42:58;;;;;;;21.13;5.40;;;9.10;99.90;;;;;;5095820;28;20326;-74
2022/01/28 13:45:38;;;;;;;32.60;5.63;;;9.20;99.90;;;;;;5083628;28;20205;-76
2022/01/28 13:48:06;;;;;;;18.80;5.18;;;9.20;99.90;;;;;;5093458;28;20194;-75
2022/01/28 13:50:36;;;;;;;18.08;4.90;;;9.10;99.90;;;;;;5093233;28;20214;-75
2022/01/28 13:53:21;;;;;;;24.92;5.32;;;9.10;99.90;;;;;;5088580;28;20218;-73
2022/01/28 13:55:51;;;;;;;15.90;4.88;;;9.00;99.90;;;;;;5095599;28;20563;-75
2022/01/28 13:58:18;;;;;;;13.30;4.47;;;8.90;99.90;;;;;;5090671;28;20516;-76
2022/01/28 14:00:48;;;;;;;20.90;4.95;;;8.90;99.90;;;;;;5091883;28;20534;-72
2022/01/28 14:03:16;;;;;;;15.63;4.25;;;8.90;99.90;;;;;;5091658;28;20254;-75
2022/01/28 14:05:54;;;;;;;20.58;4.10;;;9.00;99.90;;;;;;5087579;28;20202;-75
2022/01/28 14:08:38;;;;;;;13.88;4.50;;;9.10;99.90;;;;;;5090917;28;20289;-73
2022/01/28 14:14:18;;;;;;;13.23;3.67;;;9.10;99.90;;;;;;5095373;27;21068;-75
2022/01/28 14:16:46;;;;;;;13.65;3.42;;;9.20;99.90;;;;;;5094927;28;20625;-74
2022/01/28 14:19:14;;;;;;;24.80;5.47;;;9.20;99.90;;;;;;5093440;28;20543;-75
2022/01/28 14:21:42;;;;;;;17.42;3.97;;;9.30;99.90;;;;;;5084438;28;20272;-77
2022/01/28 14:24:10;;;;;;;18.83;4.90;;;9.50;99.90;;;;;;5073203;28;20207;-74
2022/01/28 14:26:42;;;;;;;13.77;4.00;;;9.60;99.90;;;;;;5073011;28;20272;-74
2022/01/28 14:29:46;;;;;;;16.55;3.88;;;9.50;99.90;;;;;;5073634;28;20229;-77
2022/01/28 14:32:18;;;;;;;15.60;4.93;;;9.40;99.90;;;;;;5073113;28;20313;-75
2022/01/28 14:34:46;;;;;;;13.43;5.20;;;9.30;99.90;;;;;;5073460;28;20203;-75
2022/01/28 14:37:13;;;;;;;32.83;5.05;;;9.20;99.90;;;;;;5072822;28;20192;-77
2022/01/28 14:39:41;;;;;;;14.55;5.72;;;9.10;99.90;;;;;;5072737;28;20226;-75
2022/01/28 14:42:11;;;;;;;22.13;4.60;;;9.00;99.90;;;;;;5074221;28;20223;-76
2022/01/28 14:44:41;;;;;;;25.05;5.85;;;9.00;99.90;;;;;;5085452;28;20205;-73
2022/01/28 14:47:09;;;;;;;21.05;4.25;;;8.90;99.90;;;;;;5077227;28;20187;-75
2022/01/28 14:49:36;;;;;;;13.68;3.67;;;8.90;99.90;;;;;;5073511;28;20187;-74
2022/01/28 14:52:08;;;;;;;25.35;5.32;;;8.90;99.90;;;;;;5074185;28;20257;-74
2022/01/28 14:54:36;;;;;;;15.00;4.07;;;8.90;99.90;;;;;;5074255;28;20305;-77
2022/01/28 14:57:07;;;;;;;26.27;3.78;;;8.80;99.90;;;;;;5074634;28;20644;-77
2022/01/28 14:59:35;;;;;;;27.33;5.65;;;8.80;99.90;;;;;;5072823;28;20372;-74